createdAt,value
2018-06-09T00:01:02.900Z,7.47
2018-06-09T00:03:31.953Z,7.30
2018-06-09T00:06:01.038Z,5.77
2018-06-09T00:08:30.052Z,6.90
2018-06-09T00:10:59.881Z,6.63
2018-06-09T00:13:29.078Z,6.30
2018-06-09T00:15:58.115Z,6.57
2018-06-09T00:18:30.033Z,7.20
2018-06-09T00:20:59.074Z,7.10
2018-06-09T00:23:28.192Z,8.27
2018-06-09T00:25:57.282Z,8.10
2018-06-09T00:28:26.357Z,7.40
2018-06-09T00:30:55.988Z,7.83
2018-06-09T00:33:25.084Z,8.37
2018-06-09T00:35:54.211Z,7.70
2018-06-09T00:38:23.249Z,7.70
2018-06-09T00:40:53.029Z,7.87
2018-06-09T00:43:22.594Z,7.20
2018-06-09T00:45:51.417Z,6.50
2018-06-09T00:48:21.599Z,6.40
2018-06-09T00:50:50.670Z,8.00
2018-06-09T00:53:20.212Z,7.40
2018-06-09T00:55:49.292Z,9.20
2018-06-09T00:58:18.914Z,6.80
2018-06-09T01:00:47.984Z,8.50
2018-06-09T01:03:17.748Z,7.07
2018-06-09T01:05:46.904Z,6.97
2018-06-09T01:08:15.770Z,8.33
2018-06-09T01:10:44.907Z,6.63
2018-06-09T01:13:14.493Z,7.47
2018-06-09T01:15:43.456Z,7.27
2018-06-09T01:18:12.477Z,6.67
2018-06-09T01:20:41.444Z,7.50
2018-06-09T01:23:10.668Z,6.93
2018-06-09T01:25:39.745Z,7.50
2018-06-09T01:28:09.384Z,7.23
2018-06-09T01:30:38.436Z,6.78
2018-06-09T01:33:07.497Z,7.03
2018-06-09T01:35:36.535Z,6.73
2018-06-09T01:38:05.632Z,7.73
2018-06-09T01:40:34.715Z,7.40
2018-06-09T01:43:04.367Z,7.70
2018-06-09T01:45:33.483Z,8.40
2018-06-09T01:48:02.628Z,8.60
2018-06-09T01:50:32.096Z,8.45
2018-06-09T01:53:01.366Z,9.57
2018-06-09T01:55:30.849Z,8.93
2018-06-09T01:58:00.401Z,9.30
2018-06-09T02:00:30.250Z,8.45
2018-06-09T02:02:59.367Z,8.00
2018-06-09T02:05:28.840Z,7.87
2018-06-09T02:07:58.060Z,8.73
2018-06-09T02:10:27.156Z,7.93
2018-06-09T02:12:56.141Z,8.13
2018-06-09T02:15:25.259Z,8.30
2018-06-09T02:17:54.239Z,7.57
2018-06-09T02:20:23.591Z,7.22
2018-06-09T02:22:52.851Z,7.70
2018-06-09T02:25:21.941Z,8.80
2018-06-09T02:27:50.905Z,8.27
2018-06-09T02:30:19.905Z,9.47
2018-06-09T02:32:49.020Z,9.95
2018-06-09T02:35:18.091Z,8.73
2018-06-09T02:37:47.554Z,9.80
2018-06-09T02:40:16.580Z,9.90
2018-06-09T02:42:45.852Z,9.20
2018-06-09T02:45:15.493Z,10.72
2018-06-09T02:47:44.500Z,9.10
2018-06-09T02:50:13.505Z,9.30
2018-06-09T02:52:42.475Z,10.78
2018-06-09T02:55:11.614Z,12.55
2018-06-09T02:57:40.666Z,13.05
2018-06-09T03:00:10.013Z,11.53
2018-06-09T03:02:39.497Z,12.15
2018-06-09T03:05:08.873Z,12.47
2018-06-09T03:07:37.889Z,11.73
2018-06-09T03:10:06.981Z,11.65
2018-06-09T03:12:36.077Z,12.13
2018-06-09T03:15:05.165Z,14.63
2018-06-09T03:17:34.809Z,14.15
2018-06-09T03:20:03.884Z,16.27
2018-06-09T03:22:33.180Z,16.85
2018-06-09T03:25:02.599Z,17.37
2018-06-09T03:27:31.647Z,16.93
2018-06-09T03:30:01.004Z,19.55
2018-06-09T03:32:30.063Z,20.10
2018-06-09T03:34:59.508Z,17.62
2018-06-09T03:37:28.545Z,17.73
2018-06-09T03:39:57.448Z,19.70
2018-06-09T03:42:26.440Z,18.65
2018-06-09T03:44:55.417Z,16.17
2018-06-09T03:47:24.531Z,19.48
2018-06-09T03:49:54.370Z,17.90
2018-06-09T03:52:23.829Z,18.60
2018-06-09T03:54:53.047Z,16.65
2018-06-09T03:57:22.620Z,15.70
2018-06-09T03:59:52.116Z,15.67
2018-06-09T04:02:21.230Z,20.30
2018-06-09T04:04:50.361Z,20.37
2018-06-09T04:07:19.436Z,18.82
2018-06-09T04:09:49.136Z,19.77
2018-06-09T04:12:18.248Z,19.50
2018-06-09T04:14:47.324Z,19.17
2018-06-09T04:17:16.770Z,16.12
2018-06-09T04:19:46.284Z,18.35
2018-06-09T04:22:15.301Z,16.40
2018-06-09T04:24:44.316Z,15.83
2018-06-09T04:27:13.556Z,16.53
2018-06-09T04:29:43.602Z,15.10
2018-06-09T04:32:12.630Z,16.37
2018-06-09T04:34:42.927Z,16.00
2018-06-09T04:37:12.980Z,17.85
2018-06-09T04:39:42.093Z,16.50
2018-06-09T04:42:11.202Z,16.32
2018-06-09T04:44:40.243Z,15.27
2018-06-09T04:47:10.148Z,16.00
2018-06-09T04:49:39.657Z,14.27
2018-06-09T04:52:08.707Z,16.70
2018-06-09T04:54:38.570Z,16.57
2018-06-09T04:57:07.828Z,16.07
2018-06-09T04:59:37.597Z,15.20
2018-06-09T05:02:06.830Z,15.98
2018-06-09T05:04:35.903Z,15.43
2018-06-09T05:07:04.989Z,15.63
2018-06-09T05:09:34.012Z,14.53
2018-06-09T05:12:03.512Z,15.10
2018-06-09T05:14:32.360Z,16.10
2018-06-09T05:17:01.891Z,14.53
2018-06-09T05:19:31.409Z,15.47
2018-06-09T05:22:00.485Z,15.30
2018-06-09T05:24:29.677Z,13.27
2018-06-09T05:26:59.228Z,15.73
2018-06-09T05:29:28.369Z,15.17
2018-06-09T05:31:57.296Z,13.10
2018-06-09T05:34:26.552Z,13.50
2018-06-09T05:36:55.789Z,13.27
2018-06-09T05:39:24.964Z,13.20
2018-06-09T05:41:54.102Z,13.37
2018-06-09T05:44:23.468Z,12.73
2018-06-09T05:46:53.267Z,13.07
2018-06-09T05:49:22.706Z,13.03
2018-06-09T05:51:51.286Z,13.80
2018-06-09T05:54:21.098Z,12.53
2018-06-09T05:56:50.158Z,13.60
2018-06-09T05:59:19.267Z,12.60
2018-06-09T06:01:48.380Z,12.33
2018-06-09T06:04:17.472Z,12.30
2018-06-09T06:06:46.556Z,12.10
2018-06-09T06:09:15.648Z,10.23
2018-06-09T06:11:44.989Z,11.93
2018-06-09T06:14:14.221Z,11.50
2018-06-09T06:16:43.325Z,11.30
2018-06-09T06:19:13.678Z,10.90
2018-06-09T06:21:43.184Z,12.10
2018-06-09T06:24:12.320Z,10.23
2018-06-09T06:26:41.466Z,9.70
2018-06-09T06:29:11.193Z,9.43
2018-06-09T06:31:40.252Z,10.03
2018-06-09T06:34:10.641Z,9.17
2018-06-09T06:36:40.210Z,9.00
2018-06-09T06:39:10.008Z,11.67
2018-06-09T06:41:39.120Z,11.00
2018-06-09T06:44:08.176Z,10.23
2018-06-09T06:46:37.420Z,11.23
2018-06-09T06:49:07.091Z,12.07
2018-06-09T06:51:36.225Z,11.30
2018-06-09T06:54:05.373Z,10.93
2018-06-09T06:56:34.523Z,10.40
2018-06-09T06:59:04.992Z,11.93
2018-06-09T07:01:34.520Z,12.37
2018-06-09T07:04:03.532Z,12.83
2018-06-09T07:06:32.497Z,11.00
2018-06-09T07:09:02.269Z,12.73
2018-06-09T07:11:31.566Z,11.53
2018-06-09T07:14:01.562Z,11.13
2018-06-09T07:16:30.755Z,11.60
2018-06-09T07:19:00.244Z,12.00
2018-06-09T07:21:30.154Z,12.77
2018-06-09T07:23:59.361Z,9.43
2018-06-09T07:26:28.454Z,11.37
2018-06-09T07:28:57.524Z,9.57
2018-06-09T07:31:26.459Z,9.70
2018-06-09T07:33:55.508Z,11.17
2018-06-09T07:36:25.040Z,10.47
2018-06-09T07:38:54.135Z,10.10
2018-06-09T07:41:23.947Z,10.23
2018-06-09T07:43:53.045Z,10.07
2018-06-09T07:46:22.134Z,12.70
2018-06-09T07:48:51.445Z,10.90
2018-06-09T07:51:20.505Z,12.33
2018-06-09T07:53:49.592Z,11.27
2018-06-09T07:56:19.141Z,12.23
2018-06-09T07:58:48.122Z,12.77
2018-06-09T08:01:17.227Z,11.40
2018-06-09T08:03:46.317Z,11.07
2018-06-09T08:06:15.552Z,12.63
2018-06-09T08:08:44.800Z,11.50
2018-06-09T08:11:13.779Z,11.20
2018-06-09T08:13:43.012Z,10.50
2018-06-09T08:16:12.921Z,9.20
2018-06-09T08:18:41.921Z,12.57
2018-06-09T08:21:11.411Z,10.70
2018-06-09T08:23:40.616Z,10.60
2018-06-09T08:26:09.685Z,10.37
2018-06-09T08:28:38.698Z,11.33
2018-06-09T08:31:07.817Z,12.03
2018-06-09T08:33:37.787Z,10.30
2018-06-09T08:36:06.923Z,11.03
2018-06-09T08:38:36.919Z,11.57
2018-06-09T08:41:06.150Z,11.70
2018-06-09T08:43:35.852Z,11.83
2018-06-09T08:46:04.899Z,11.80
2018-06-09T08:48:34.788Z,13.07
2018-06-09T08:51:03.893Z,12.20
2018-06-09T08:53:32.936Z,10.80
2018-06-09T08:56:03.046Z,13.67
2018-06-09T08:58:32.148Z,13.60
2018-06-09T09:01:01.742Z,12.87
2018-06-09T09:03:30.880Z,10.00
2018-06-09T09:06:00.438Z,14.30
2018-06-09T09:08:29.965Z,12.87
2018-06-09T09:10:58.981Z,12.80
2018-06-09T09:13:28.159Z,12.80
2018-06-09T09:15:57.164Z,11.93
2018-06-09T09:18:26.201Z,13.57
2018-06-09T09:20:55.242Z,11.70
2018-06-09T09:23:24.316Z,11.83
2018-06-09T09:25:53.467Z,12.27
2018-06-09T09:28:22.500Z,12.80
2018-06-09T09:30:51.620Z,13.77
2018-06-09T09:33:21.077Z,14.17
2018-06-09T09:35:50.714Z,12.27
2018-06-09T09:38:19.732Z,12.20
2018-06-09T09:40:48.801Z,12.97
2018-06-09T09:43:17.916Z,13.20
2018-06-09T09:45:47.540Z,12.70
2018-06-09T09:48:16.367Z,11.57
2018-06-09T09:50:45.999Z,11.97
2018-06-09T09:53:15.780Z,12.10
2018-06-09T09:55:44.884Z,12.50
2018-06-09T09:58:14.028Z,14.00
2018-06-09T10:00:43.477Z,11.33
2018-06-09T10:03:14.275Z,10.83
2018-06-09T10:05:44.184Z,12.20
2018-06-09T10:08:13.343Z,12.67
2018-06-09T10:10:42.518Z,11.67
2018-06-09T10:13:11.540Z,12.10
2018-06-09T10:15:40.649Z,12.90
2018-06-09T10:18:09.664Z,12.40
2018-06-09T10:20:38.622Z,11.70
2018-06-09T10:23:07.667Z,13.63
2018-06-09T10:25:36.841Z,13.13
2018-06-09T10:28:05.897Z,17.30
2018-06-09T10:30:34.899Z,11.93
2018-06-09T10:33:03.993Z,11.80
2018-06-09T10:35:33.080Z,11.10
2018-06-09T10:38:02.725Z,12.60
2018-06-09T10:40:32.416Z,11.10
2018-06-09T10:43:01.872Z,12.00
2018-06-09T10:45:31.498Z,15.50
2018-06-09T10:48:00.589Z,11.33
2018-06-09T10:50:29.620Z,11.37
2018-06-09T10:52:58.690Z,11.40
2018-06-09T10:55:28.035Z,11.30
2018-06-09T10:57:56.974Z,11.13
2018-06-09T11:00:26.235Z,12.13
2018-06-09T11:02:56.102Z,10.00
2018-06-09T11:05:25.301Z,10.70
2018-06-09T11:07:54.405Z,10.57
2018-06-09T11:10:23.565Z,10.87
2018-06-09T11:12:53.207Z,9.80
2018-06-09T11:15:22.296Z,9.33
2018-06-09T11:17:51.415Z,7.50
2018-06-09T11:20:20.464Z,10.10
2018-06-09T11:22:49.723Z,10.93
2018-06-09T11:25:19.135Z,9.40
2018-06-09T11:27:48.166Z,10.87
2018-06-09T11:30:17.285Z,8.23
2018-06-09T11:32:46.460Z,8.90
2018-06-09T11:35:16.406Z,8.90
2018-06-09T11:37:45.593Z,9.80
2018-06-09T11:40:15.036Z,9.43
2018-06-09T11:42:44.684Z,10.70
2018-06-09T11:45:13.883Z,7.77
2018-06-09T11:47:43.008Z,10.53
2018-06-09T11:50:13.874Z,6.77
2018-06-09T11:52:43.044Z,6.97
2018-06-09T11:55:13.135Z,8.63
2018-06-09T11:57:42.461Z,8.10
2018-06-09T12:00:11.643Z,7.70
2018-06-09T12:02:40.733Z,11.10
2018-06-09T12:05:09.862Z,7.70
2018-06-09T12:07:38.829Z,8.27
2018-06-09T12:10:07.928Z,6.93
2018-06-09T12:12:37.088Z,8.03
2018-06-09T12:15:07.118Z,7.57
2018-06-09T12:17:36.220Z,8.27
2018-06-09T12:20:05.550Z,7.30
2018-06-09T12:22:34.606Z,6.93
2018-06-09T12:25:04.174Z,7.87
2018-06-09T12:27:33.294Z,7.33
2018-06-09T12:30:02.420Z,6.90
2018-06-09T12:32:31.433Z,9.20
2018-06-09T12:35:00.591Z,8.70
2018-06-09T12:37:29.699Z,6.87
2018-06-09T12:39:58.793Z,6.93
2018-06-09T12:42:28.656Z,7.20
2018-06-09T12:44:57.788Z,7.03
2018-06-09T12:47:26.880Z,7.07
2018-06-09T12:49:55.984Z,6.63
2018-06-09T12:52:25.198Z,7.60
2018-06-09T12:54:54.726Z,6.53
2018-06-09T12:57:23.288Z,6.80
2018-06-09T12:59:52.647Z,8.17
2018-06-09T13:02:22.529Z,8.40
2018-06-09T13:04:52.200Z,7.23
2018-06-09T13:07:21.213Z,7.33
2018-06-09T13:09:50.278Z,7.40
2018-06-09T13:12:19.632Z,7.20
2018-06-09T13:14:49.273Z,6.90
2018-06-09T13:17:18.389Z,7.40
2018-06-09T13:19:47.640Z,8.03
2018-06-09T13:22:16.909Z,9.17
2018-06-09T13:24:46.229Z,6.77
2018-06-09T13:27:15.297Z,6.67
2018-06-09T13:29:44.367Z,6.33
2018-06-09T13:32:13.647Z,6.93
2018-06-09T13:34:42.797Z,7.07
2018-06-09T13:37:11.848Z,7.17
2018-06-09T13:39:41.360Z,7.00
2018-06-09T13:42:11.067Z,7.10
2018-06-09T13:44:40.588Z,6.23
2018-06-09T13:47:09.671Z,6.63
2018-06-09T13:49:39.119Z,6.23
2018-06-09T13:52:08.383Z,6.33
2018-06-09T13:54:37.510Z,6.90
2018-06-09T13:57:06.684Z,5.10
2018-06-09T13:59:35.771Z,5.93
2018-06-09T14:02:05.096Z,6.57
2018-06-09T14:04:34.722Z,6.30
2018-06-09T14:07:03.985Z,6.13
2018-06-09T14:09:33.384Z,5.73
2018-06-09T14:12:02.481Z,5.87
2018-06-09T14:14:32.018Z,6.80
2018-06-09T14:17:01.180Z,6.60
2018-06-09T14:19:30.612Z,6.90
2018-06-09T14:21:59.773Z,5.90
2018-06-09T14:24:29.034Z,5.47
2018-06-09T14:26:58.139Z,5.93
2018-06-09T14:29:27.063Z,6.20
2018-06-09T14:31:56.057Z,6.93
2018-06-09T14:34:25.149Z,5.77
2018-06-09T14:36:55.018Z,6.20
2018-06-09T14:39:24.148Z,5.87
2018-06-09T14:41:53.574Z,5.73
2018-06-09T14:44:22.662Z,5.90
2018-06-09T14:46:51.645Z,5.53
2018-06-09T14:49:21.094Z,5.90
2018-06-09T14:51:49.789Z,5.60
2018-06-09T14:54:18.354Z,5.77
2018-06-09T14:56:47.515Z,6.70
2018-06-09T14:59:16.728Z,5.40
2018-06-09T15:01:46.212Z,5.47
2018-06-09T15:04:16.044Z,6.57
2018-06-09T15:06:45.128Z,5.70
2018-06-09T15:09:14.833Z,5.90
2018-06-09T15:11:43.928Z,5.30
2018-06-09T15:14:13.028Z,5.57
2018-06-09T15:16:42.688Z,5.83
2018-06-09T15:19:12.010Z,6.07
2018-06-09T15:21:41.190Z,6.30
2018-06-09T15:24:10.415Z,6.87
2018-06-09T15:26:40.078Z,6.97
2018-06-09T15:29:09.847Z,10.93
2018-06-09T15:31:39.129Z,9.80
2018-06-09T15:34:08.661Z,6.60
2018-06-09T15:36:37.852Z,5.20
2018-06-09T15:39:08.449Z,6.00
2018-06-09T15:41:38.073Z,4.53
2018-06-09T15:44:08.939Z,5.03
2018-06-09T15:46:38.183Z,5.23
2018-06-09T15:49:07.536Z,4.20
2018-06-09T15:51:36.644Z,4.37
2018-06-09T15:54:05.925Z,4.50
2018-06-09T15:56:35.373Z,4.23
2018-06-09T15:59:04.496Z,5.33
2018-06-09T16:01:33.720Z,3.87
2018-06-09T16:04:03.945Z,5.03
2018-06-09T16:06:33.853Z,5.03
2018-06-09T16:09:03.212Z,6.37
2018-06-09T16:11:32.749Z,5.50
2018-06-09T16:14:02.181Z,7.57
2018-06-09T16:16:31.501Z,5.40
2018-06-09T16:19:01.329Z,5.60
2018-06-09T16:21:30.340Z,5.10
2018-06-09T16:23:59.502Z,5.50
2018-06-09T16:26:28.833Z,5.30
2018-06-09T16:28:57.944Z,5.47
2018-06-09T16:31:27.097Z,5.60
2018-06-09T16:33:56.158Z,5.73
2018-06-09T16:36:25.281Z,5.50
2018-06-09T16:38:54.327Z,6.20
2018-06-09T16:41:23.510Z,5.57
2018-06-09T16:43:52.605Z,7.07
2018-06-09T16:46:21.636Z,8.40
2018-06-09T16:48:51.000Z,7.83
2018-06-09T16:51:20.376Z,9.23
2018-06-09T16:53:50.189Z,9.20
2018-06-09T16:56:19.204Z,8.20
2018-06-09T16:58:48.345Z,8.40
2018-06-09T17:01:17.504Z,8.70
2018-06-09T17:03:46.646Z,9.93
2018-06-09T17:06:16.016Z,8.87
2018-06-09T17:08:45.577Z,8.30
2018-06-09T17:11:14.698Z,9.20
2018-06-09T17:13:43.920Z,10.27
2018-06-09T17:16:13.078Z,9.27
2018-06-09T17:18:42.112Z,10.00
2018-06-09T17:21:11.208Z,9.27
2018-06-09T17:23:41.033Z,10.07
2018-06-09T17:26:10.136Z,9.60
2018-06-09T17:28:39.208Z,8.50
2018-06-09T17:31:08.407Z,8.70
2018-06-09T17:33:37.938Z,10.37
2018-06-09T17:36:07.106Z,10.10
2018-06-09T17:38:36.733Z,9.07
2018-06-09T17:41:05.711Z,13.17
2018-06-09T17:43:34.732Z,12.77
2018-06-09T17:46:03.681Z,10.20
2018-06-09T17:48:32.773Z,13.63
2018-06-09T17:51:01.857Z,12.97
2018-06-09T17:53:31.320Z,9.57
2018-06-09T17:56:00.361Z,8.73
2018-06-09T17:58:29.999Z,9.13
2018-06-09T18:00:59.084Z,8.83
2018-06-09T18:03:28.162Z,8.60
2018-06-09T18:05:57.592Z,9.70
2018-06-09T18:08:26.659Z,9.67
2018-06-09T18:10:56.204Z,8.10
2018-06-09T18:13:25.888Z,7.80
2018-06-09T18:15:54.973Z,12.63
2018-06-09T18:18:24.491Z,8.87
2018-06-09T18:20:53.564Z,9.40
2018-06-09T18:23:23.628Z,8.47
2018-06-09T18:25:53.000Z,9.50
2018-06-09T18:28:21.994Z,8.63
2018-06-09T18:30:50.996Z,8.63
2018-06-09T18:33:20.090Z,18.53
2018-06-09T18:35:49.064Z,12.20
2018-06-09T18:38:18.173Z,8.97
2018-06-09T18:40:47.378Z,9.13
2018-06-09T18:43:17.117Z,8.43
2018-06-09T18:45:46.166Z,10.10
2018-06-09T18:48:15.301Z,14.73
2018-06-09T18:50:44.870Z,14.53
2018-06-09T18:53:14.014Z,12.30
2018-06-09T18:55:43.160Z,9.20
2018-06-09T18:58:12.341Z,10.23
2018-06-09T19:00:41.450Z,9.27
2018-06-09T19:03:11.049Z,10.60
2018-06-09T19:05:40.192Z,9.30
2018-06-09T19:08:09.235Z,10.00
2018-06-09T19:10:38.265Z,9.37
2018-06-09T19:13:07.836Z,11.10
2018-06-09T19:15:36.883Z,8.90
2018-06-09T19:18:06.062Z,10.30
2018-06-09T19:20:35.123Z,11.27
2018-06-09T19:23:04.335Z,8.70
2018-06-09T19:25:33.337Z,10.50
2018-06-09T19:28:02.428Z,11.50
2018-06-09T19:30:31.611Z,18.03
2018-06-09T19:33:00.973Z,10.90
2018-06-09T19:35:30.020Z,16.13
2018-06-09T19:37:59.111Z,20.63
2018-06-09T19:40:28.225Z,26.53
2018-06-09T19:42:57.684Z,23.90
2018-06-09T19:45:26.984Z,22.67
2018-06-09T19:47:56.113Z,23.40
2018-06-09T19:50:25.232Z,15.97
2018-06-09T19:52:54.406Z,13.70
2018-06-09T19:55:23.474Z,11.90
2018-06-09T19:57:52.597Z,11.80
2018-06-09T20:00:22.113Z,10.27
2018-06-09T20:02:51.623Z,11.40
2018-06-09T20:05:20.759Z,11.57
2018-06-09T20:07:49.937Z,9.23
2018-06-09T20:10:19.069Z,10.47
2018-06-09T20:12:48.161Z,10.30
2018-06-09T20:15:17.444Z,9.80
2018-06-09T20:17:46.588Z,10.60
2018-06-09T20:20:15.696Z,9.37
2018-06-09T20:22:44.747Z,9.40
2018-06-09T20:25:14.215Z,9.70
2018-06-09T20:27:42.871Z,14.30
2018-06-09T20:30:12.489Z,12.07
2018-06-09T20:32:41.760Z,9.70
2018-06-09T20:35:11.237Z,8.40
2018-06-09T20:37:40.815Z,8.57
2018-06-09T20:40:10.204Z,8.87
2018-06-09T20:42:38.970Z,9.93
2018-06-09T20:45:08.753Z,10.30
2018-06-09T20:47:38.346Z,9.87
2018-06-09T20:50:07.716Z,9.10
2018-06-09T20:52:37.394Z,9.60
2018-06-09T20:55:06.490Z,10.43
2018-06-09T20:57:36.256Z,16.30
2018-06-09T21:00:05.633Z,13.77
2018-06-09T21:02:36.622Z,10.57
2018-06-09T21:05:06.688Z,10.00
2018-06-09T21:07:37.422Z,8.63
2018-06-09T21:10:07.631Z,13.07
2018-06-09T21:12:37.249Z,9.70
2018-06-09T21:15:07.139Z,10.10
2018-06-09T21:17:36.676Z,9.00
2018-06-09T21:20:06.578Z,9.10
2018-06-09T21:22:35.901Z,9.57
2018-06-09T21:25:05.557Z,9.43
2018-06-09T21:27:39.666Z,10.40
2018-06-09T21:30:13.871Z,10.20
2018-06-09T21:32:44.244Z,10.70
2018-06-09T21:35:29.652Z,20.10
2018-06-09T21:38:03.865Z,34.27
2018-06-09T21:40:38.256Z,18.73
2018-06-09T21:43:12.549Z,14.37
2018-06-09T21:45:47.404Z,16.37
2018-06-09T21:48:16.990Z,16.83
2018-06-09T21:50:46.071Z,16.03
2018-06-09T21:53:15.403Z,15.60
2018-06-09T21:55:44.550Z,16.77
2018-06-09T21:58:13.666Z,17.23
2018-06-09T22:00:42.904Z,18.13
2018-06-09T22:03:12.230Z,18.70
2018-06-09T22:05:41.353Z,18.00
2018-06-09T22:08:10.564Z,17.27
2018-06-09T22:10:39.929Z,17.50
2018-06-09T22:13:09.070Z,17.33
2018-06-09T22:15:38.790Z,11.67
2018-06-09T22:18:07.940Z,12.53
2018-06-09T22:20:38.217Z,12.33
2018-06-09T22:23:08.403Z,12.83
2018-06-09T22:26:44.533Z,12.57
2018-06-09T22:29:13.680Z,12.80
2018-06-09T22:31:43.005Z,11.70
2018-06-09T22:34:12.489Z,12.93
2018-06-09T22:36:41.556Z,13.83
2018-06-09T22:39:10.745Z,13.50
2018-06-09T22:41:39.869Z,13.90
2018-06-09T22:44:09.672Z,14.00
2018-06-09T22:46:38.897Z,11.23
2018-06-09T22:49:07.964Z,14.30
2018-06-09T22:51:37.440Z,14.23
2018-06-09T22:54:06.536Z,12.40
2018-06-09T22:56:35.634Z,13.40
2018-06-09T22:59:04.903Z,13.30
2018-06-09T23:01:34.129Z,15.47
2018-06-09T23:04:03.899Z,15.10
2018-06-09T23:06:32.982Z,13.33
2018-06-09T23:09:02.206Z,15.40
2018-06-09T23:11:31.331Z,15.43
2018-06-09T23:14:01.247Z,14.70
2018-06-09T23:16:30.365Z,14.40
2018-06-09T23:18:59.460Z,15.43
2018-06-09T23:21:28.608Z,14.10
2018-06-09T23:23:57.729Z,14.87
2018-06-09T23:26:26.897Z,16.07
2018-06-09T23:28:56.137Z,16.00
2018-06-09T23:31:25.021Z,16.93
2018-06-09T23:33:54.157Z,15.90
2018-06-09T23:36:23.669Z,14.90
2018-06-09T23:38:53.163Z,17.63
2018-06-09T23:41:21.847Z,16.83
2018-06-09T23:43:50.948Z,16.40
2018-06-09T23:46:20.631Z,15.83
2018-06-09T23:48:49.613Z,15.93
2018-06-09T23:51:19.065Z,14.43
2018-06-09T23:53:48.226Z,15.47
2018-06-09T23:56:17.327Z,17.93
2018-06-09T23:58:46.814Z,18.80
